Latest Coastal Weather Observations for Kennaook / Cape Grim

IDT60701

Issued at 4:52 am EST Thursday 3 September 2026 (issued every 10 minutes, with the page automatically refreshed every 10 minutes)

About coastal observations | Map of coastal stations | Coastal observations for TAS | Marine services | Other Formats
Station Details ID: 091331 Name: KENNAOOK/CAPE GRIM Lat: -40.68 Lon: 144.69 Height: 86.0 m
Data from the previous 72 hours. | See also: Recent months at Kennaook / Cape Grim
Date/Time
EST
Wind Sea
Height
m
Swell Vis
km
Cloud Weather Temp
°C
Press
MSL
hPa
Rain since
9am
mm
Dir  Spd
kts
Gust
kts
Height
m
Period
s
Dir
03/04:33am WNW 31 41 - - - - - Partly cloudy - 12.3 1000.1 1.2
03/04:30am WNW 30 41 - - - - - Partly cloudy - 12.4 1000.1 1.2
03/04:00am WNW 31 40 - - - - - Partly cloudy - 12.6 1000.4 1.0
03/03:30am WNW 27 36 - - - - - Partly cloudy - 12.6 1000.8 1.0
03/03:08am WNW 27 42 - - - - - Partly cloudy - 12.5 1001.2 1.0
03/03:00am WNW 27 35 - - - - - Cloudy - 12.5 1001.4 1.0
03/02:59am WNW 28 35 - - - - - Partly cloudy - 12.5 1001.5 1.0
03/02:30am WNW 28 39 - - - - - Partly cloudy - 12.5 1002.1 1.0
03/02:07am WNW 27 37 - - - - - Partly cloudy - 12.5 1002.6 1.0
03/02:00am WNW 30 37 - - - - - Partly cloudy - 12.5 1002.7 1.0
03/01:52am WNW 28 37 - - - - - Partly cloudy - 12.5 1002.8 1.0
03/01:30am WNW 29 38 - - - - - Partly cloudy - 12.3 1003.0 1.0
03/01:14am WNW 25 36 - - - - - Partly cloudy - 12.2 1003.2 1.0
03/01:13am WNW 26 36 - - - - - Partly cloudy - 12.2 1003.2 1.0
03/01:11am WNW 27 36 - - - - - Partly cloudy - 12.2 1003.3 1.0
03/01:00am WNW 31 40 - - - - - Partly cloudy - 12.2 1003.3 1.0
03/12:49am WNW 29 41 - - - - - Partly cloudy - 12.1 1003.3 1.0
03/12:40am WNW 25 35 - - - - - Mostly clear - 11.9 1003.5 1.0
03/12:32am WNW 23 30 - - - - - Mostly clear - 12.0 1003.5 0.8
03/12:30am WNW 24 31 - - - - - Partly cloudy - 12.1 1003.6 0.8
03/12:22am WNW 27 43 - - - - - Mostly clear - 11.9 1003.7 0.8
03/12:12am WNW 29 45 - - - - - Mostly clear - 11.9 1003.8 0.8
03/12:00am WNW 24 34 - - - - - Cloudy - 12.4 1004.2 0.6
 
Date/Time
EST
Wind Sea
Height
m
Swell Vis
km
Cloud Weather Temp
°C
Press
MSL
hPa
Rain since
9am
mm
Dir  Spd
kts
Gust
kts
Height
m
Period
s
Dir
02/11:50pm WNW 25 35 - - - - - Partly cloudy - 12.3 1004.3 0.6
02/11:30pm NW 24 36 - - - - - Partly cloudy - 12.4 1004.7 0.6
02/11:26pm NW 25 36 - - - - - Partly cloudy - 12.4 1004.7 0.6
02/11:21pm NW 25 35 - - - - - Partly cloudy - 12.3 1004.8 0.6
02/11:00pm WNW 24 31 - - - - - Partly cloudy - 12.4 1004.9 0.6
02/10:30pm WNW 23 30 - - - - - Partly cloudy - 12.3 1005.4 0.6
02/10:04pm WNW 25 32 - - - - - Partly cloudy - 12.1 1005.8 0.6
02/10:00pm WNW 24 32 - - - - - Partly cloudy - 12.1 1005.9 0.6
02/09:34pm WNW 21 31 - - - - - Mostly clear - 12.1 1006.1 0.6
02/09:30pm WNW 22 31 - - - - - Mostly clear - 12.1 1006.2 0.6
02/09:00pm NW 22 29 - - - - - Mostly cloudy - 11.7 1006.4 0.6
02/08:58pm WNW 23 29 - - - - - Mostly clear - 11.7 1006.4 0.6
02/08:39pm WNW 24 34 - - - - - Mostly clear - 11.7 1006.7 0.6
02/08:32pm WNW 22 28 - - - - - Mostly clear - 11.5 1006.6 0.6
02/08:30pm WNW 22 29 - - - - - Mostly clear - 11.5 1006.7 0.6
02/08:02pm WNW 23 36 - - - - - Mostly clear - 11.6 1006.9 0.6
02/08:00pm WNW 22 29 - - - - - Mostly clear - 11.6 1006.9 0.6
02/07:53pm WNW 20 29 - - - - - Partly cloudy - 11.4 1007.0 0.6
02/07:30pm WNW 24 34 - - - - - Mostly clear - 11.5 1007.1 0.4
02/07:26pm WNW 22 34 - - - - - Partly cloudy - 11.7 1007.1 0.4
02/07:00pm WNW 23 30 - - - - - Mostly clear - 11.4 1007.0 0.4
02/06:33pm WNW 21 29 - - - - - Mostly clear - 11.4 1007.1 0.4
02/06:30pm WNW 21 29 - - - - - Mostly clear - 11.3 1007.1 0.4
02/06:17pm WNW 21 26 - - - - - Partly cloudy - 11.3 1007.2 0.0
02/06:00pm NW 20 27 - - - - - Cloudy - 11.5 1007.2 0.0
02/05:30pm WNW 19 25 - - - - - Mostly clear - 11.9 1007.3 0.0
02/05:00pm WNW 20 28 - - - - - Mostly clear - 11.5 1007.3 0.0
02/04:35pm WNW 19 26 - - - - - Mostly clear - 11.4 1007.7 0.0
02/04:30pm WNW 19 26 - - - - - Mostly clear - 11.6 1007.7 0.0
02/04:13pm WNW 21 31 - - - - - Mostly clear - 11.6 1007.8 0.0
02/04:00pm WNW 23 29 - - - - - Mostly clear - 12.1 1007.9 0.0
02/03:30pm WNW 22 27 - - - - - Partly cloudy - 12.7 1008.0 0.0
02/03:00pm WNW 21 27 - - - - - Cloudy - 12.8 1008.2 0.0
02/02:30pm WNW 21 27 - - - - - Mostly clear - 12.8 1008.3 0.0
02/02:00pm WNW 20 26 - - - - - Mostly clear - 12.4 1008.6 0.0
02/01:55pm W 18 23 - - - - - Mostly clear - 12.0 1008.7 0.0
02/01:45pm W 19 29 - - - - - Mostly clear - 11.2 1008.9 0.0
02/01:30pm WNW 22 27 - - - - - Partly cloudy - 12.3 1009.0 0.0
02/01:27pm WNW 22 26 - - - - - Mostly clear - 12.8 1009.0 0.0
02/01:17pm WNW 20 30 - - - - - Mostly clear - 12.1 1009.1 0.0
02/01:00pm WNW 20 25 - - - - - Partly cloudy - 12.5 1009.4 0.0
02/12:30pm WNW 23 28 - - - - - Mostly clear - 12.4 1009.7 0.0
02/12:00pm WNW 20 25 - - - - - Cloudy - 12.8 1010.1 0.0
02/11:32am WNW 21 27 - - - - - Partly cloudy - 12.5 1010.2 0.0
02/11:30am WNW 21 26 - - - - - Partly cloudy - 12.4 1010.2 0.0
02/11:09am WNW 20 30 - - - - - Partly cloudy - 12.3 1010.4 0.0
02/11:00am WNW 22 27 - - - - - Partly cloudy - 12.3 1010.5 0.0
02/10:30am WNW 21 26 - - - - - Partly cloudy - 12.0 1010.5 0.0
02/10:00am W 19 24 - - - - - Partly cloudy - 12.1 1010.7 0.0
02/09:30am W 20 28 - - - - - Mostly clear - 12.4 1010.9 0.0
02/09:00am W 19 27 - - - - - Mostly cloudy - 11.7 1010.8 6.4
02/08:30am W 21 30 - - - - - Mostly clear - 11.8 1010.6 6.4
02/08:14am W 15 23 - - - - - Mostly clear - 11.0 1010.7 6.4
02/08:00am W 16 26 - - - - - Mostly clear - 10.2 1010.8 6.4
02/07:44am WNW 21 27 - - - - - Partly cloudy - 10.7 1010.5 6.4
02/07:33am W 19 29 - - - - - Mostly clear - 11.1 1010.4 6.4
02/07:30am W 18 26 - - - - - Mostly clear - 11.1 1010.3 6.4
02/07:00am W 18 26 - - - - - Mostly clear - 11.6 1010.1 6.4
02/06:36am W 17 25 - - - - - Cloudy - 11.5 1009.6 6.4
02/06:30am W 16 23 - - - - - Partly cloudy - 11.4 1009.6 6.4
02/06:00am W 20 29 - - - - - Cloudy - 11.3 1009.6 6.4
02/05:58am W 19 29 - - - - - Partly cloudy - 11.3 1009.5 6.4
02/05:30am W 18 27 - - - - - Mostly clear - 11.2 1009.5 6.4
02/05:19am W 20 27 - - - - - Mostly clear - 11.6 1009.4 6.4
02/05:09am W 18 28 - - - - - Partly cloudy - 11.5 1009.4 6.4
02/05:00am W 17 26 - - - - - Partly cloudy - 11.4 1009.3 6.4
02/04:58am W 17 26 - - - - - Partly cloudy - 11.4 1009.3 6.4
02/04:30am W 17 27 - - - - - Mostly clear - 11.1 1009.2 6.4
02/04:29am W 17 27 - - - - - Mostly clear - 11.0 1009.2 6.4
02/04:00am W 16 23 - - - - - Cloudy - 11.3 1009.1 6.4
02/03:30am W 16 21 - - - - - Mostly clear - 11.2 1009.1 6.4
02/03:00am W 18 25 - - - - - Cloudy - 10.9 1009.0 6.4
02/02:30am W 17 24 - - - - - Mostly clear - 11.0 1009.1 6.4
02/02:26am W 18 24 - - - - - Mostly clear - 11.2 1009.1 6.4
02/02:12am W 16 26 - - - - - Partly cloudy - 11.1 1009.1 6.4
02/02:00am W 15 20 - - - - - Partly cloudy - 11.0 1009.3 6.4
02/01:58am W 15 22 - - - - - Partly cloudy - 11.0 1009.3 6.4
02/01:48am W 15 25 - - - - - Mostly clear - 11.1 1009.3 6.4
02/01:30am W 15 23 - - - - - Mostly clear - 11.3 1009.3 6.4
02/01:00am W 14 21 - - - - - Mostly clear - 11.1 1009.3 6.4
02/12:30am WSW 13 22 - - - - - Mostly clear - 11.2 1009.2 6.4
02/12:13am SW 14 22 - - - - - Mostly clear - 11.1 1009.1 6.4
02/12:00am WSW 15 26 - - - - - Cloudy - 11.2 1009.0 6.4
 
Date/Time
EST
Wind Sea
Height
m
Swell Vis
km
Cloud Weather Temp
°C
Press
MSL
hPa
Rain since
9am
mm
Dir  Spd
kts
Gust
kts
Height
m
Period
s
Dir
01/11:56pm WSW 15 26 - - - - - Mostly clear - 11.2 1009.0 6.4
01/11:30pm SW 16 23 - - - - - Partly cloudy - 11.4 1009.0 6.4
01/11:00pm WSW 12 22 - - - - - Partly cloudy - 10.9 1008.7 6.4
01/10:53pm WSW 12 22 - - - - - Partly cloudy - 11.2 1008.8 6.4
01/10:42pm WSW 15 25 - - - - - Mostly clear - 11.2 1008.8 6.4
01/10:33pm SW 18 28 - - - - - Partly cloudy - 11.1 1008.8 6.4
01/10:30pm SW 19 28 - - - - - Partly cloudy - 11.1 1008.8 6.4
01/10:00pm SW 18 26 - - - - - Partly cloudy - 11.6 1008.5 6.4
01/09:32pm WSW 10 22 - - - - - Partly cloudy - 11.8 1008.1 6.4
01/09:30pm WSW 9 15 - - - - - Partly cloudy - 11.8 1008.1 6.4
01/09:05pm WSW 9 15 - - - - - Mostly clear - 11.8 1008.0 6.2
01/09:00pm WSW 10 16 - - - - - Cloudy Recent precip. 11.8 1008.0 6.2
01/08:49pm W 12 18 - - - - - Mostly clear - 11.5 1008.1 6.2
01/08:30pm WSW 12 18 - - - - - Mostly clear - 11.7 1007.9 6.2
01/08:11pm WNW 24 36 - - - - - Partly cloudy - 11.9 1007.7 5.8
01/08:07pm WNW 26 36 - - - - - Cloudy - 12.9 1007.5 5.4
01/08:06pm WNW 26 33 - - - - - Cloudy - 13.1 1007.4 5.2
01/08:00pm NW 27 34 - - - - - Cloudy - 13.1 1007.2 4.4
01/07:47pm NW 27 38 - - - - - Cloudy - 13.1 1007.1 4.4
01/07:30pm NW 26 33 - - - - - Cloudy - 13.1 1007.2 4.0
01/07:06pm NW 28 34 - - - - - Partly cloudy - 13.1 1007.2 3.8
01/07:00pm NW 28 37 - - - - - Partly cloudy - 13.1 1007.1 3.6
01/06:54pm NW 27 37 - - - - - Partly cloudy - 13.1 1007.0 3.4
01/06:49pm NW 26 36 - - - - - Partly cloudy - 13.1 1007.0 2.8
01/06:30pm NW 24 29 - - - - - Mostly clear - 13.3 1006.8 1.6
01/06:23pm NW 26 32 - - - - - Partly cloudy - 13.3 1006.8 1.6
01/06:00pm NW 27 34 - - - - - Cloudy Recent precip. 13.3 1006.9 1.6
01/05:50pm NW 29 37 - - - - - Partly cloudy - 13.3 1007.0 1.6
01/05:33pm NW 27 37 - - - - - Partly cloudy - 13.2 1007.1 1.4
01/05:30pm NW 29 37 - - - - - Partly cloudy - 13.2 1007.1 1.4
01/05:23pm NW 29 36 - - - - - Partly cloudy - 13.3 1006.8 1.4
01/05:21pm NW 28 36 - - - - - Partly cloudy - 13.3 1006.8 1.4
01/05:00pm NW 27 37 - - - - - Partly cloudy - 13.4 1006.6 1.0
01/04:59pm NW 28 37 - - - - - Partly cloudy - 13.4 1006.6 1.0
01/04:43pm NW 26 36 - - - - - Mostly clear - 13.5 1006.9 0.4
01/04:32pm WNW 27 35 - - - - - Mostly clear - 13.7 1007.2 0.4
01/04:30pm WNW 27 35 - - - - - Partly cloudy - 13.7 1007.1 0.4
01/04:09pm WNW 26 34 - - - - - Mostly clear - 14.3 1007.5 0.0
01/04:00pm NW 25 36 - - - - - Partly cloudy - 14.8 1007.7 0.0
01/03:59pm NW 26 36 - - - - - Partly cloudy - 14.8 1007.7 0.0
01/03:30pm NW 19 25 - - - - - Partly cloudy - 14.3 1007.8 0.0
01/03:00pm NNW 20 26 - - - - - Cloudy - 13.9 1008.0 0.0
01/02:30pm NNW 20 25 - - - - - Partly cloudy - 13.9 1007.9 0.0
01/02:00pm N 21 26 - - - - - Partly cloudy - 13.8 1007.9 0.0
01/01:30pm N 22 30 - - - - - Cloudy - 13.8 1008.5 0.0
01/01:00pm N 22 29 - - - - - Partly cloudy - 13.5 1009.4 0.0
01/12:30pm N 21 27 - - - - - Partly cloudy - 13.7 1010.6 0.0
01/12:00pm N 21 27 - - - - - Mostly cloudy - 14.0 1011.3 0.0
01/11:30am NNW 18 23 - - - - - - - 14.1 1012.3 0.0
01/11:00am NNW 19 25 - - - - - - - 14.5 1012.9 0.0
01/10:30am N 19 25 - - - - - - - 14.8 1013.4 0.0
01/10:00am N 20 25 - - - - - - - 14.6 1013.7 0.0
01/09:30am N 19 25 - - - - - - - 14.3 1014.1 0.0
01/09:00am N 21 25 - - - - - - - 14.2 1014.9 0.0
01/08:30am N 20 24 - - - - - - - 13.9 1015.2 0.0
01/08:00am N 17 21 - - - - - - - 13.4 1015.6 0.0
01/07:30am N 15 19 - - - - - - - 12.6 1015.9 0.0
01/07:00am N 14 18 - - - - - - - 11.8 1016.0 0.0
01/06:30am N 13 16 - - - - - - - 11.4 1016.4 0.0
01/06:00am N 12 15 - - - - - - - 11.3 1016.8 0.0
01/05:30am N 13 17 - - - - - - - 11.2 1017.3 0.0
01/05:00am NNE 11 14 - - - - - - - 10.0 1017.8 0.0
01/04:30am NE 12 13 - - - - - - - 9.4 1018.1 0.0
01/04:20am NE 11 13 - - - - - Mostly clear - 9.5 1018.5 0.0
01/04:00am NNE 12 13 - - - - - Partly cloudy - 9.5 1018.8 0.0
01/03:30am NNE 10 12 - - - - - Partly cloudy - 10.0 1019.3 0.0
01/03:00am N 12 15 - - - - - Mostly cloudy - 10.7 1019.8 0.0
01/02:30am N 12 14 - - - - - Cloudy - 10.4 1020.4 0.0
01/02:00am N 10 14 - - - - - Cloudy - 10.5 1021.2 0.0
01/01:30am NNE 7 10 - - - - - Cloudy - 9.6 1022.0 0.0
01/01:00am N 9 11 - - - - - Partly cloudy - 9.7 1022.1 0.0
01/12:58am N 9 11 - - - - - Partly cloudy - 10.0 1022.2 0.0
01/12:36am N 8 9 - - - - - Mostly clear - 9.3 1022.3 0.0
01/12:30am N 9 11 - - - - - Partly cloudy - 9.4 1022.4 0.0
01/12:00am N 10 13 - - - - - Mostly cloudy - 10.2 1022.8 0.0
 
Date/Time
EST
Wind Sea
Height
m
Swell Vis
km
Cloud Weather Temp
°C
Press
MSL
hPa
Rain since
9am
mm
Dir  Spd
kts
Gust
kts
Height
m
Period
s
Dir
31/11:30pm N 9 12 - - - - - Cloudy - 9.9 1023.3 0.0
31/11:00pm N 9 12 - - - - - Cloudy - 9.8 1023.9 0.0
31/10:30pm NNW 6 9 - - - - - Cloudy - 10.0 1024.7 0.0
31/10:00pm NW 7 11 - - - - - Cloudy - 9.8 1025.0 0.0
31/09:30pm NW 8 11 - - - - - Cloudy - 9.8 1025.1 0.0
31/09:00pm NW 8 13 - - - - - Cloudy - 10.0 1025.3 0.0
31/08:30pm WNW 9 12 - - - - - Cloudy - 10.0 1025.6 0.0
31/08:00pm NW 9 12 - - - - - Cloudy - 9.9 1025.8 0.0
31/07:30pm W 8 12 - - - - - Cloudy - 10.0 1026.0 0.0
31/07:00pm W 9 12 - - - - - Cloudy - 9.8 1026.2 0.0
31/06:30pm WNW 10 13 - - - - - Cloudy - 10.0 1026.2 0.0
31/06:00pm W 8 12 - - - - - Cloudy - 10.3 1026.4 0.0
31/05:30pm W 9 13 - - - - - Cloudy - 10.3 1026.4 0.0
31/05:23pm W 10 15 - - - - - Cloudy - 10.4 1026.4 0.0
31/05:05pm W 8 12 - - - - - Cloudy - 10.6 1026.6 0.0
31/05:00pm W 8 12 - - - - - Cloudy - 10.7 1026.6 0.0
31/04:30pm W 9 13 - - - - - Cloudy - 10.8 1027.1 0.0
31/04:00pm WNW 12 15 - - - - - Cloudy - 11.1 1027.5 0.0
31/03:30pm W 13 16 - - - - - Cloudy - 11.1 1027.8 0.0
31/03:00pm WNW 13 16 - - - - - Cloudy - 11.2 1027.9 0.0
31/02:30pm WNW 12 15 - - - - - Cloudy - 11.3 1028.1 0.0
31/02:00pm WNW 13 18 - - - - - Cloudy - 11.5 1028.2 0.0
31/01:30pm W 10 13 - - - - - Cloudy - 11.3 1028.6 0.0
31/01:21pm W 10 15 - - - - - Cloudy - 11.3 1028.8 0.0
31/01:00pm W 11 17 - - - - - Cloudy - 11.0 1029.1 0.0
31/12:30pm W 12 17 - - - - - Cloudy - 11.2 1029.4 0.0
31/12:00pm W 9 13 - - - - - Cloudy - 10.8 1029.8 0.0
31/11:30am W 8 12 - - - - - Cloudy - 10.7 1030.2 0.0
31/11:00am W 13 17 - - - - - Cloudy - 10.6 1030.4 0.0
31/10:30am W 10 14 - - - - - Cloudy - 10.9 1030.6 0.0
31/10:00am W 10 14 - - - - - Cloudy - 10.8 1030.6 0.0
31/09:30am W 10 17 - - - - - Cloudy - 10.6 1030.6 0.0
31/09:00am W 9 15 - - - - - Cloudy - 10.5 1030.9 0.0
31/08:30am WSW 9 15 - - - - - Cloudy - 10.7 1030.9 0.0
31/08:00am W 11 17 - - - - - Cloudy - 10.5 1030.7 0.0
31/07:30am W 8 13 - - - - - Cloudy - 10.5 1030.4 0.0
31/07:00am WSW 9 15 - - - - - Cloudy - 10.2 1030.2 0.0
31/06:30am WSW 9 17 - - - - - Cloudy - 10.2 1030.0 0.0
31/06:00am WSW 10 16 - - - - - Cloudy - 10.6 1030.1 0.0
31/05:30am WSW 10 17 - - - - - Cloudy - 10.7 1030.0 0.0
31/05:00am WSW 9 16 - - - - - Cloudy - 10.8 1029.9 0.0

Other formats

Comma delimited format used in spreadsheet applications
http://www.bom.gov.au/fwo/IDT60701/IDT60701.95954.axf

JavaScript Object Notation format (JSON) in row-major order
http://www.bom.gov.au/fwo/IDT60701/IDT60701.95954.json

Data quality

Most of these data are generated automatically and are frequently updated. Quality checks on data are not normally performed. It is possible for incorrect values to appear. Refer to information at About Latest Weather Observations and please check the disclaimer before using these data.